createdAt,value
2019-04-03T00:00:28.830Z,0.00
2019-04-03T00:01:28.812Z,0.00
2019-04-03T00:02:29.045Z,0.00
2019-04-03T00:03:29.091Z,0.00
2019-04-03T00:04:28.750Z,0.00
2019-04-03T00:05:28.732Z,0.00
2019-04-03T00:06:28.827Z,0.00
2019-04-03T00:09:28.737Z,0.00
2019-04-03T00:11:28.908Z,0.00
2019-04-03T00:12:28.573Z,0.00
2019-04-03T00:13:28.550Z,0.00
2019-04-03T00:14:28.546Z,0.00
2019-04-03T00:15:28.536Z,0.00
2019-04-03T00:16:28.791Z,0.00
2019-04-03T00:17:28.474Z,0.00
2019-04-03T00:19:28.420Z,0.00
2019-04-03T00:21:28.380Z,0.00
2019-04-03T00:25:28.307Z,0.00
2019-04-03T00:26:30.690Z,0.00
2019-04-03T00:27:28.695Z,0.00
2019-04-03T00:28:28.239Z,0.00
2019-04-03T00:29:28.589Z,0.00
2019-04-03T00:30:28.297Z,0.00
2019-04-03T00:31:28.194Z,0.00
2019-04-03T00:32:28.541Z,0.00
2019-04-03T00:33:28.911Z,0.00
2019-04-03T00:34:28.122Z,0.00
2019-04-03T00:35:28.422Z,0.00
2019-04-03T00:36:28.056Z,0.00
2019-04-03T00:38:28.316Z,0.00
2019-04-03T00:39:28.802Z,0.00
2019-04-03T00:40:28.102Z,0.00
2019-04-03T00:41:29.100Z,0.00
2019-04-03T00:42:28.032Z,0.00
2019-04-03T00:44:27.885Z,0.00
2019-04-03T00:45:28.231Z,0.00
2019-04-03T00:46:27.866Z,0.00
2019-04-03T00:47:27.887Z,0.00
2019-04-03T00:48:28.222Z,0.00
2019-04-03T00:49:27.904Z,0.00
2019-04-03T00:50:27.762Z,0.00
2019-04-03T00:52:28.125Z,0.00
2019-04-03T00:53:28.291Z,0.00
2019-04-03T00:54:30.557Z,0.00
2019-04-03T00:55:28.386Z,0.00
2019-04-03T00:56:27.870Z,0.00
2019-04-03T00:57:27.705Z,0.00
2019-04-03T00:58:27.625Z,0.00
2019-04-03T00:59:27.672Z,0.00
2019-04-03T01:01:27.678Z,0.00
2019-04-03T01:03:28.321Z,0.00
2019-04-03T01:04:28.807Z,0.00
2019-04-03T01:05:28.511Z,0.00
2019-04-03T01:06:28.692Z,0.00
2019-04-03T01:07:29.132Z,0.00
2019-04-03T01:08:29.063Z,0.00
2019-04-03T01:09:29.064Z,0.00
2019-04-03T01:10:27.851Z,0.00
2019-04-03T01:11:27.368Z,0.00
2019-04-03T01:12:27.377Z,0.00
2019-04-03T01:13:27.301Z,0.00
2019-04-03T01:14:27.418Z,0.00
2019-04-03T01:15:27.331Z,0.00
2019-04-03T01:16:27.439Z,0.00
2019-04-03T01:17:27.474Z,0.00
2019-04-03T01:18:27.236Z,0.00
2019-04-03T01:19:27.187Z,0.00
2019-04-03T01:20:27.248Z,0.00
2019-04-03T01:21:27.224Z,0.00
2019-04-03T01:22:27.204Z,0.00
2019-04-03T01:23:27.057Z,0.00
2019-04-03T01:27:27.267Z,0.00
2019-04-03T01:28:27.008Z,0.00
2019-04-03T01:29:27.364Z,0.00
2019-04-03T01:30:26.901Z,0.00
2019-04-03T01:31:26.999Z,0.00
2019-04-03T01:32:26.871Z,0.00
2019-04-03T01:33:27.146Z,0.00
2019-04-03T01:34:26.819Z,0.00
2019-04-03T01:35:26.793Z,0.00
2019-04-03T01:37:26.751Z,0.00
2019-04-03T01:38:26.727Z,0.00
2019-04-03T01:39:27.230Z,0.00
2019-04-03T01:40:26.724Z,0.00
2019-04-03T01:41:26.897Z,0.00
2019-04-03T01:42:26.651Z,0.00
2019-04-03T01:43:26.719Z,0.00
2019-04-03T01:44:26.709Z,0.00
2019-04-03T01:45:26.959Z,0.00
2019-04-03T01:46:27.768Z,0.00
2019-04-03T01:48:26.882Z,0.00
2019-04-03T01:49:28.149Z,0.00
2019-04-03T01:50:26.953Z,0.00
2019-04-03T01:51:29.118Z,0.00
2019-04-03T01:52:26.441Z,0.00
2019-04-03T01:53:28.017Z,0.00
2019-04-03T01:54:26.574Z,0.00
2019-04-03T01:55:26.669Z,0.00
2019-04-03T01:56:26.459Z,0.00
2019-04-03T01:57:26.711Z,0.00
2019-04-03T01:58:26.380Z,0.00
2019-04-03T02:00:26.286Z,0.00
2019-04-03T02:01:26.560Z,0.00
2019-04-03T02:02:26.418Z,0.00
2019-04-03T02:03:26.504Z,0.00
2019-04-03T02:04:26.196Z,0.00
2019-04-03T02:05:26.172Z,0.00
2019-04-03T02:06:26.180Z,0.00
2019-04-03T02:07:26.158Z,0.00
2019-04-03T02:08:26.100Z,0.00
2019-04-03T02:09:26.113Z,0.00
2019-04-03T02:10:26.459Z,0.00
2019-04-03T02:11:26.151Z,0.00
2019-04-03T02:12:26.237Z,0.00
2019-04-03T02:13:26.051Z,0.00
2019-04-03T02:14:26.092Z,0.00
2019-04-03T02:16:25.928Z,0.00
2019-04-03T02:20:26.766Z,0.00
2019-04-03T02:23:26.052Z,0.00
2019-04-03T02:24:26.076Z,0.00
2019-04-03T02:25:25.766Z,0.00
2019-04-03T02:26:25.898Z,0.00
2019-04-03T02:27:25.729Z,0.00
2019-04-03T02:28:25.700Z,0.00
2019-04-03T02:29:25.829Z,0.00
2019-04-03T02:30:25.645Z,0.00
2019-04-03T02:31:25.914Z,0.00
2019-04-03T02:32:25.993Z,0.00
2019-04-03T02:33:28.610Z,0.00
2019-04-03T02:34:25.662Z,0.00
2019-04-03T02:38:25.771Z,0.00
2019-04-03T02:39:27.435Z,0.00
2019-04-03T02:40:25.432Z,0.00
2019-04-03T02:41:25.537Z,0.00
2019-04-03T02:42:25.388Z,0.00
2019-04-03T02:43:25.370Z,0.00
2019-04-03T02:44:25.341Z,0.00
2019-04-03T02:45:26.041Z,0.00
2019-04-03T02:46:28.140Z,0.00
2019-04-03T02:47:25.280Z,0.00
2019-04-03T02:48:25.264Z,0.00
2019-04-03T02:49:25.273Z,0.00
2019-04-03T02:52:25.857Z,0.00
2019-04-03T02:55:25.114Z,0.00
2019-04-03T02:56:25.959Z,0.00
2019-04-03T02:58:25.055Z,0.00
2019-04-03T02:59:26.554Z,0.00
2019-04-03T03:00:25.021Z,0.00
2019-04-03T03:02:24.960Z,0.00
2019-04-03T03:03:24.941Z,0.00
2019-04-03T03:04:24.916Z,0.00
2019-04-03T03:05:28.368Z,0.00
2019-04-03T03:06:25.167Z,0.00
2019-04-03T03:07:24.850Z,0.00
2019-04-03T03:08:24.833Z,0.00
2019-04-03T03:10:24.792Z,0.00
2019-04-03T03:11:25.246Z,0.00
2019-04-03T03:12:27.161Z,0.00
2019-04-03T03:13:24.776Z,0.00
2019-04-03T03:14:24.722Z,0.00
2019-04-03T03:15:24.787Z,0.00
2019-04-03T03:16:24.667Z,0.00
2019-04-03T03:17:24.942Z,0.00
2019-04-03T03:18:27.251Z,0.00
2019-04-03T03:19:24.600Z,0.00
2019-04-03T03:20:25.436Z,0.00
2019-04-03T03:21:24.741Z,0.00
2019-04-03T03:22:24.635Z,0.00
2019-04-03T03:23:24.818Z,0.00
2019-04-03T03:24:28.428Z,0.00
2019-04-03T03:25:24.493Z,0.00
2019-04-03T03:26:24.449Z,0.00
2019-04-03T03:27:24.515Z,0.00
2019-04-03T03:28:24.753Z,0.00
2019-04-03T03:29:26.923Z,0.00
2019-04-03T03:30:41.220Z,0.00
2019-04-03T03:31:57.914Z,0.00
2019-04-03T03:32:31.358Z,0.00
2019-04-03T03:33:34.530Z,0.00
2019-04-03T03:34:44.983Z,0.00
2019-04-03T03:35:30.592Z,0.00
2019-04-03T03:36:26.321Z,0.00
2019-04-03T03:37:24.275Z,0.00
2019-04-03T03:38:27.246Z,0.00
2019-04-03T03:39:24.336Z,0.00
2019-04-03T03:40:24.154Z,0.00
2019-04-03T03:41:24.774Z,0.00
2019-04-03T03:42:24.116Z,0.00
2019-04-03T03:43:24.191Z,0.00
2019-04-03T03:44:24.074Z,0.00
2019-04-03T03:46:28.228Z,0.00
2019-04-03T03:47:24.008Z,0.00
2019-04-03T03:48:24.280Z,0.00
2019-04-03T03:50:25.119Z,0.00
2019-04-03T03:51:24.302Z,0.00
2019-04-03T03:52:23.894Z,0.00
2019-04-03T03:53:23.877Z,0.00
2019-04-03T03:54:23.861Z,0.00
2019-04-03T03:55:25.538Z,0.00
2019-04-03T03:56:23.818Z,0.00
2019-04-03T03:57:23.796Z,0.00
2019-04-03T03:58:23.779Z,0.00
2019-04-03T03:59:23.757Z,0.00
2019-04-03T04:00:24.796Z,0.00
2019-04-03T04:03:23.973Z,0.00
2019-04-03T04:04:23.969Z,0.00
2019-04-03T04:05:23.980Z,0.00
2019-04-03T04:07:23.620Z,0.00
2019-04-03T04:08:23.567Z,0.00
2019-04-03T04:09:23.586Z,0.00
2019-04-03T04:10:25.393Z,0.00
2019-04-03T04:11:23.586Z,0.00
2019-04-03T04:12:23.468Z,0.00
2019-04-03T04:13:23.466Z,0.00
2019-04-03T04:14:23.923Z,0.00
2019-04-03T04:15:23.505Z,0.00
2019-04-03T04:16:23.380Z,0.00
2019-04-03T04:17:23.662Z,0.00
2019-04-03T04:18:24.418Z,0.00
2019-04-03T04:19:23.548Z,0.00
2019-04-03T04:20:23.392Z,0.00
2019-04-03T04:21:23.292Z,0.00
2019-04-03T04:22:26.666Z,4.00
2019-04-03T04:23:24.782Z,4.00
2019-04-03T04:24:23.271Z,4.00
2019-04-03T04:25:23.342Z,4.00
2019-04-03T04:26:23.212Z,0.00
2019-04-03T04:27:23.274Z,4.00
2019-04-03T04:29:23.451Z,8.00
2019-04-03T04:31:23.317Z,8.00
2019-04-03T04:32:23.308Z,8.00
2019-04-03T04:33:23.056Z,12.00
2019-04-03T04:34:22.997Z,12.00
2019-04-03T04:37:24.629Z,16.00
2019-04-03T04:38:23.149Z,16.00
2019-04-03T04:39:23.101Z,20.00
2019-04-03T04:40:23.007Z,20.00
2019-04-03T04:42:23.048Z,32.00
2019-04-03T04:43:23.151Z,36.00
2019-04-03T04:44:22.794Z,44.00
2019-04-03T04:45:22.756Z,56.00
2019-04-03T04:46:22.874Z,60.00
2019-04-03T04:47:22.718Z,72.00
2019-04-03T04:48:22.964Z,80.00
2019-04-03T04:49:23.312Z,92.00
2019-04-03T04:50:25.310Z,100.00
2019-04-03T04:51:25.347Z,108.00
2019-04-03T04:52:22.617Z,124.00
2019-04-03T04:53:22.613Z,144.00
2019-04-03T04:55:30.438Z,184.00
2019-04-03T04:59:23.024Z,244.00
2019-04-03T05:01:23.138Z,276.00
2019-04-03T05:02:22.936Z,292.00
2019-04-03T05:03:22.457Z,308.00
2019-04-03T05:05:22.342Z,340.00
2019-04-03T05:06:22.380Z,360.00
2019-04-03T05:07:22.507Z,380.00
2019-04-03T05:08:22.270Z,408.00
2019-04-03T05:09:22.808Z,432.00
2019-04-03T05:10:22.233Z,460.00
2019-04-03T05:11:22.208Z,492.00
2019-04-03T05:12:22.485Z,524.00
2019-04-03T05:13:22.494Z,556.00
2019-04-03T05:14:22.215Z,588.00
2019-04-03T05:15:23.981Z,624.00
2019-04-03T05:16:24.461Z,668.00
2019-04-03T05:17:22.085Z,712.00
2019-04-03T05:19:22.053Z,804.00
2019-04-03T05:20:22.092Z,856.00
2019-04-03T05:21:22.345Z,916.00
2019-04-03T05:22:23.995Z,972.00
2019-04-03T05:23:23.884Z,1028.00
2019-04-03T05:24:22.036Z,1084.00
2019-04-03T05:26:22.192Z,1196.00
2019-04-03T05:27:21.862Z,1256.00
2019-04-03T05:28:24.664Z,1324.00
2019-04-03T05:29:21.837Z,1396.00
2019-04-03T05:30:22.113Z,1468.00
2019-04-03T05:31:21.772Z,1544.00
2019-04-03T05:32:21.760Z,1608.00
2019-04-03T05:33:21.943Z,1672.00
2019-04-03T05:34:21.865Z,1736.00
2019-04-03T05:35:21.720Z,1804.00
2019-04-03T05:36:21.686Z,1868.00
2019-04-03T05:37:21.639Z,1944.00
2019-04-03T05:39:22.073Z,2096.00
2019-04-03T05:40:21.941Z,2164.00
2019-04-03T05:41:21.819Z,2220.00
2019-04-03T05:42:21.624Z,2276.00
2019-04-03T05:44:23.282Z,2392.00
2019-04-03T05:46:22.168Z,2508.00
2019-04-03T05:47:21.662Z,2564.00
2019-04-03T05:48:21.485Z,2616.00
2019-04-03T05:50:21.911Z,2720.00
2019-04-03T05:51:21.640Z,2784.00
2019-04-03T05:53:21.358Z,2876.00
2019-04-03T05:54:21.405Z,2880.00
2019-04-03T05:55:21.268Z,2852.00
2019-04-03T05:57:22.916Z,2808.00
2019-04-03T05:59:21.257Z,2756.00
2019-04-03T06:00:21.530Z,2736.00
2019-04-03T06:02:22.085Z,2644.00
2019-04-03T06:03:21.906Z,2624.00
2019-04-03T06:05:21.119Z,2600.00
2019-04-03T06:06:21.091Z,2572.00
2019-04-03T06:07:21.106Z,2548.00
2019-04-03T06:08:21.305Z,2524.00
2019-04-03T06:09:22.454Z,2508.00
2019-04-03T06:10:20.954Z,2496.00
2019-04-03T06:11:21.489Z,2452.00
2019-04-03T06:12:21.159Z,2408.00
2019-04-03T06:13:21.050Z,2392.00
2019-04-03T06:14:23.215Z,2420.00
2019-04-03T06:15:22.059Z,2468.00
2019-04-03T06:16:24.106Z,2568.00
2019-04-03T06:17:20.796Z,2700.00
2019-04-03T06:18:20.786Z,2792.00
2019-04-03T06:20:21.046Z,2860.00
2019-04-03T06:21:21.169Z,2912.00
2019-04-03T06:22:22.150Z,2936.00
2019-04-03T06:23:22.032Z,2932.00
2019-04-03T06:24:20.664Z,2916.00
2019-04-03T06:25:20.801Z,2916.00
2019-04-03T06:27:21.098Z,2996.00
2019-04-03T06:28:20.569Z,2988.00
2019-04-03T06:29:20.594Z,3024.00
2019-04-03T06:30:20.533Z,3060.00
2019-04-03T06:31:20.576Z,3036.00
2019-04-03T06:32:20.512Z,2984.00
2019-04-03T06:34:20.792Z,2836.00
2019-04-03T06:35:20.515Z,2804.00
2019-04-03T06:36:22.745Z,2924.00
2019-04-03T06:38:20.358Z,3476.00
2019-04-03T06:40:20.383Z,3980.00
2019-04-03T06:42:20.598Z,4472.00
2019-04-03T06:43:20.503Z,4668.00
2019-04-03T06:44:22.606Z,4792.00
2019-04-03T06:45:20.238Z,4868.00
2019-04-03T06:46:20.265Z,4952.00
2019-04-03T06:47:20.200Z,5048.00
2019-04-03T06:48:20.162Z,5128.00
2019-04-03T06:49:20.463Z,5220.00
2019-04-03T06:50:20.303Z,5292.00
2019-04-03T06:52:21.470Z,5384.00
2019-04-03T06:55:20.310Z,5716.00
2019-04-03T06:57:20.036Z,6016.00
2019-04-03T06:58:19.957Z,6028.00
2019-04-03T07:00:20.188Z,5664.00
2019-04-03T07:02:20.380Z,5736.00
2019-04-03T07:03:22.300Z,6004.00
2019-04-03T07:04:20.034Z,6244.00
2019-04-03T07:05:19.903Z,6380.00
2019-04-03T07:06:22.429Z,6468.00
2019-04-03T07:08:30.058Z,6464.00
2019-04-03T07:09:24.034Z,6468.00
2019-04-03T07:10:25.514Z,6448.00
2019-04-03T07:11:23.670Z,6348.00
2019-04-03T07:12:19.936Z,6276.00
2019-04-03T07:13:20.557Z,6292.00
2019-04-03T07:14:20.105Z,6352.00
2019-04-03T07:15:19.934Z,6392.00
2019-04-03T07:16:19.731Z,6424.00
2019-04-03T07:17:19.611Z,6552.00
2019-04-03T07:18:19.577Z,6760.00
2019-04-03T07:19:19.558Z,7000.00
2019-04-03T07:20:20.802Z,7244.00
2019-04-03T07:22:19.768Z,7868.00
2019-04-03T07:23:19.528Z,8108.00
2019-04-03T07:24:19.754Z,8356.00
2019-04-03T07:25:19.486Z,8636.00
2019-04-03T07:26:19.893Z,8852.00
2019-04-03T07:27:19.604Z,9008.00
2019-04-03T07:28:19.477Z,9124.00
2019-04-03T07:29:19.799Z,9212.00
2019-04-03T07:30:21.403Z,9268.00
2019-04-03T07:31:19.687Z,9232.00
2019-04-03T07:32:19.666Z,9092.00
2019-04-03T07:33:19.323Z,8868.00
2019-04-03T07:34:19.488Z,8656.00
2019-04-03T07:35:19.481Z,8544.00
2019-04-03T07:36:19.379Z,8488.00
2019-04-03T07:38:19.790Z,7972.00
2019-04-03T07:39:19.939Z,7516.00
2019-04-03T07:40:20.929Z,7212.00
2019-04-03T07:41:22.094Z,7088.00
2019-04-03T07:43:19.610Z,6988.00
2019-04-03T07:45:19.350Z,6300.00
2019-04-03T07:46:19.047Z,5800.00
2019-04-03T07:47:19.332Z,5404.00
2019-04-03T07:48:19.026Z,5164.00
2019-04-03T07:49:18.995Z,4988.00
2019-04-03T07:50:18.976Z,4924.00
2019-04-03T07:51:19.267Z,4964.00
2019-04-03T07:52:18.937Z,5088.00
2019-04-03T07:53:19.925Z,5200.00
2019-04-03T07:54:20.181Z,5272.00
2019-04-03T07:55:19.231Z,5280.00
2019-04-03T07:56:19.076Z,5184.00
2019-04-03T07:57:19.113Z,4976.00
2019-04-03T07:58:19.362Z,4756.00
2019-04-03T07:59:18.897Z,4492.00
2019-04-03T08:00:18.891Z,4192.00
2019-04-03T08:01:18.948Z,3988.00
2019-04-03T08:02:18.864Z,3980.00
2019-04-03T08:03:20.648Z,4120.00
2019-04-03T08:04:18.949Z,4268.00
2019-04-03T08:05:19.009Z,4320.00
2019-04-03T08:06:18.823Z,4324.00
2019-04-03T08:07:18.665Z,4352.00
2019-04-03T08:09:18.628Z,4376.00
2019-04-03T08:10:19.246Z,4416.00
2019-04-03T08:11:18.806Z,4312.00
2019-04-03T08:12:18.931Z,4072.00
2019-04-03T08:19:20.918Z,3388.00
2019-04-03T08:20:20.106Z,3380.00
2019-04-03T08:21:18.413Z,3412.00
2019-04-03T08:22:18.370Z,3476.00
2019-04-03T08:23:19.177Z,3564.00
2019-04-03T08:24:18.632Z,3744.00
2019-04-03T08:26:19.802Z,4408.00
2019-04-03T08:27:18.284Z,4704.00
2019-04-03T08:28:18.273Z,4780.00
2019-04-03T08:31:18.238Z,4200.00
2019-04-03T08:32:18.429Z,3672.00
2019-04-03T08:33:20.861Z,3324.00
2019-04-03T08:34:18.828Z,3360.00
2019-04-03T08:35:22.398Z,3444.00
2019-04-03T08:37:28.755Z,3256.00
2019-04-03T08:38:18.207Z,3272.00
2019-04-03T08:39:18.459Z,3284.00
2019-04-03T08:41:18.009Z,3276.00
2019-04-03T08:42:18.162Z,3356.00
2019-04-03T08:43:17.982Z,3404.00
2019-04-03T08:44:18.298Z,3512.00
2019-04-03T08:46:17.917Z,3688.00
2019-04-03T08:47:17.900Z,3808.00
2019-04-03T08:48:18.259Z,3948.00
2019-04-03T08:53:17.864Z,4504.00
2019-04-03T08:54:17.753Z,4360.00
2019-04-03T08:55:17.729Z,4320.00
2019-04-03T08:56:17.991Z,4384.00
2019-04-03T08:57:20.531Z,4436.00
2019-04-03T08:58:20.562Z,4388.00
2019-04-03T08:59:17.650Z,4148.00
2019-04-03T09:00:17.646Z,3960.00
2019-04-03T09:01:17.616Z,3928.00
2019-04-03T09:02:17.699Z,4020.00
2019-04-03T09:03:17.872Z,4108.00
2019-04-03T09:04:18.002Z,4112.00
2019-04-03T09:05:19.375Z,3976.00
2019-04-03T09:06:17.508Z,3800.00
2019-04-03T09:07:17.588Z,3688.00
2019-04-03T09:09:17.757Z,3668.00
2019-04-03T09:10:17.434Z,3692.00
2019-04-03T09:11:17.714Z,3668.00
2019-04-03T09:12:17.557Z,3708.00
2019-04-03T09:13:22.429Z,3932.00
2019-04-03T09:14:19.457Z,4268.00
2019-04-03T09:15:17.437Z,4280.00
2019-04-03T09:16:17.314Z,4168.00
2019-04-03T09:17:17.722Z,4168.00
2019-04-03T09:18:17.334Z,4160.00
2019-04-03T09:19:17.727Z,4272.00
2019-04-03T09:20:17.383Z,4468.00
2019-04-03T09:21:17.464Z,4420.00
2019-04-03T09:22:17.657Z,3940.00
2019-04-03T09:23:17.183Z,3432.00
2019-04-03T09:25:17.137Z,3132.00
2019-04-03T09:26:17.103Z,3232.00
2019-04-03T09:27:17.398Z,3368.00
2019-04-03T09:28:17.342Z,3448.00
2019-04-03T09:29:17.067Z,3504.00
2019-04-03T09:30:17.395Z,3596.00
2019-04-03T09:31:19.872Z,3764.00
2019-04-03T09:32:17.060Z,3872.00
2019-04-03T09:33:17.026Z,3820.00
2019-04-03T09:34:20.133Z,3824.00
2019-04-03T09:35:17.153Z,4048.00
2019-04-03T09:37:18.205Z,3892.00
2019-04-03T09:38:16.993Z,3756.00
2019-04-03T09:39:17.014Z,3884.00
2019-04-03T09:40:17.853Z,4240.00
2019-04-03T09:41:19.214Z,4660.00
2019-04-03T09:42:16.783Z,5132.00
2019-04-03T09:44:16.744Z,5444.00
2019-04-03T09:45:16.978Z,5316.00
2019-04-03T09:46:16.704Z,5372.00
2019-04-03T09:48:16.957Z,5160.00
2019-04-03T09:50:16.625Z,4392.00
2019-04-03T09:51:18.292Z,4172.00
2019-04-03T09:52:16.591Z,4084.00
2019-04-03T09:53:16.590Z,4156.00
2019-04-03T09:54:16.566Z,4560.00
2019-04-03T09:55:16.934Z,4824.00
2019-04-03T09:56:16.527Z,5012.00
2019-04-03T09:57:16.613Z,5592.00
2019-04-03T09:58:16.471Z,6344.00
2019-04-03T10:00:16.420Z,6720.00
2019-04-03T10:01:18.511Z,6544.00
2019-04-03T10:02:18.957Z,6180.00
2019-04-03T10:03:16.483Z,5700.00
2019-04-03T10:04:16.449Z,5312.00
2019-04-03T10:05:16.389Z,5136.00
2019-04-03T10:06:16.341Z,4816.00
2019-04-03T10:08:16.882Z,4256.00
2019-04-03T10:09:16.523Z,3912.00
2019-04-03T10:10:17.043Z,3636.00
2019-04-03T10:12:16.190Z,2776.00
2019-04-03T10:14:16.734Z,2080.00
2019-04-03T10:15:18.478Z,1868.00
2019-04-03T10:16:16.845Z,1712.00
2019-04-03T10:17:16.430Z,1528.00
2019-04-03T10:18:16.368Z,1416.00
2019-04-03T10:19:16.396Z,1416.00
2019-04-03T10:21:16.011Z,1684.00
2019-04-03T10:22:16.213Z,1864.00
2019-04-03T10:23:16.072Z,2136.00
2019-04-03T10:24:16.006Z,2404.00
2019-04-03T10:25:16.195Z,2472.00
2019-04-03T10:26:16.552Z,2468.00
2019-04-03T10:27:16.208Z,2540.00
2019-04-03T10:28:15.953Z,2612.00
2019-04-03T10:30:15.972Z,2536.00
2019-04-03T10:31:16.106Z,2768.00
2019-04-03T10:32:16.120Z,3084.00
2019-04-03T10:33:16.026Z,3388.00
2019-04-03T10:34:15.973Z,3676.00
2019-04-03T10:35:15.723Z,3948.00
2019-04-03T10:36:17.696Z,4360.00
2019-04-03T10:37:16.075Z,4904.00
2019-04-03T10:38:16.121Z,5576.00
2019-04-03T10:40:15.656Z,6772.00
2019-04-03T10:42:15.960Z,6812.00
2019-04-03T10:43:15.612Z,6876.00
2019-04-03T10:44:16.035Z,6860.00
2019-04-03T10:45:15.504Z,6640.00
2019-04-03T10:46:16.528Z,6616.00
2019-04-03T10:47:15.531Z,6796.00
2019-04-03T10:48:15.532Z,7104.00
2019-04-03T10:49:15.621Z,7528.00
2019-04-03T10:51:15.789Z,7324.00
2019-04-03T10:52:15.439Z,7064.00
2019-04-03T10:53:15.574Z,6752.00
2019-04-03T10:54:15.881Z,6840.00
2019-04-03T10:55:15.396Z,7328.00
2019-04-03T10:56:15.504Z,7784.00
2019-04-03T10:57:15.545Z,7708.00
2019-04-03T10:58:15.764Z,7748.00
2019-04-03T10:59:17.662Z,8036.00
2019-04-03T11:00:15.518Z,8124.00
2019-04-03T11:02:15.757Z,7132.00
2019-04-03T11:03:15.411Z,6248.00
2019-04-03T11:04:15.224Z,5508.00
2019-04-03T11:05:15.430Z,5108.00
2019-04-03T11:06:15.169Z,5004.00
2019-04-03T11:07:15.121Z,5100.00
2019-04-03T11:08:15.110Z,5320.00
2019-04-03T11:10:15.855Z,5600.00
2019-04-03T11:11:15.105Z,5524.00
2019-04-03T11:12:15.012Z,5528.00
2019-04-03T11:13:15.092Z,5556.00
2019-04-03T11:14:15.464Z,5976.00
2019-04-03T11:15:15.811Z,6604.00
2019-04-03T11:16:15.759Z,6684.00
2019-04-03T11:17:17.548Z,6164.00
2019-04-03T11:18:14.967Z,5468.00
2019-04-03T11:19:14.944Z,4940.00
2019-04-03T11:21:16.042Z,4920.00
2019-04-03T11:23:15.171Z,5580.00
2019-04-03T11:24:14.877Z,5728.00
2019-04-03T11:25:16.005Z,5612.00
2019-04-03T11:26:17.762Z,5160.00
2019-04-03T11:27:15.295Z,4732.00
2019-04-03T11:28:14.690Z,4676.00
2019-04-03T11:29:14.903Z,4792.00
2019-04-03T11:30:18.283Z,5004.00
2019-04-03T11:32:14.667Z,5224.00
2019-04-03T11:33:14.821Z,5384.00
2019-04-03T11:34:17.135Z,6224.00
2019-04-03T11:35:15.179Z,7248.00
2019-04-03T11:36:14.917Z,8064.00
2019-04-03T11:37:15.024Z,7920.00
2019-04-03T11:38:24.010Z,7324.00
2019-04-03T11:39:16.072Z,6960.00
2019-04-03T11:41:18.639Z,7708.00
2019-04-03T11:42:24.046Z,8216.00
2019-04-03T11:43:15.795Z,8400.00
2019-04-03T11:44:15.001Z,9388.00
2019-04-03T11:45:14.990Z,10328.00
2019-04-03T11:47:14.747Z,12976.00
2019-04-03T11:48:14.907Z,14952.00
2019-04-03T11:49:14.774Z,15196.00
2019-04-03T11:51:14.502Z,12716.00
2019-04-03T11:53:14.221Z,7656.00
2019-04-03T11:54:14.174Z,5964.00
2019-04-03T11:56:14.573Z,5696.00
2019-04-03T11:58:14.098Z,6540.00
2019-04-03T11:59:14.121Z,6948.00
2019-04-03T12:00:14.348Z,8364.00
2019-04-03T12:01:15.946Z,10036.00
2019-04-03T12:02:14.178Z,11700.00
2019-04-03T12:03:14.309Z,12812.00
2019-04-03T12:04:14.019Z,13780.00
2019-04-03T12:07:14.331Z,16960.00
2019-04-03T12:08:13.970Z,17472.00
2019-04-03T12:09:13.997Z,16720.00
2019-04-03T12:10:13.922Z,15156.00
2019-04-03T12:11:13.979Z,13452.00
2019-04-03T12:12:14.459Z,12044.00
2019-04-03T12:13:14.480Z,11232.00
2019-04-03T12:14:14.999Z,11032.00
2019-04-03T12:15:16.216Z,10736.00
2019-04-03T12:16:13.872Z,9904.00
2019-04-03T12:17:14.162Z,9080.00
2019-04-03T12:18:14.032Z,9864.00
2019-04-03T12:19:13.811Z,11168.00
2019-04-03T12:20:15.346Z,12156.00
2019-04-03T12:21:14.768Z,12256.00
2019-04-03T12:23:17.019Z,11252.00
2019-04-03T12:27:17.410Z,12408.00
2019-04-03T12:28:17.254Z,13332.00
2019-04-03T12:29:15.058Z,12620.00
2019-04-03T12:30:13.692Z,11144.00
2019-04-03T12:31:13.587Z,10104.00
2019-04-03T12:33:13.686Z,8716.00
2019-04-03T12:34:14.107Z,9044.00
2019-04-03T12:35:13.981Z,9440.00
2019-04-03T12:36:14.447Z,10528.00
2019-04-03T12:37:13.710Z,12368.00
2019-04-03T12:38:13.542Z,13456.00
2019-04-03T12:39:13.464Z,13524.00
2019-04-03T12:40:13.644Z,13844.00
2019-04-03T12:41:14.911Z,13612.00
2019-04-03T12:43:13.793Z,12300.00
2019-04-03T12:44:13.440Z,11720.00
2019-04-03T12:45:13.584Z,11348.00
2019-04-03T12:46:13.233Z,11116.00
2019-04-03T12:47:14.144Z,10908.00
2019-04-03T12:48:15.394Z,10904.00
2019-04-03T12:49:13.813Z,11172.00
2019-04-03T12:50:13.963Z,11576.00
2019-04-03T12:51:13.368Z,11904.00
2019-04-03T12:53:15.760Z,12524.00
2019-04-03T12:54:14.076Z,12748.00
2019-04-03T12:55:13.387Z,13016.00
2019-04-03T12:56:13.061Z,13264.00
2019-04-03T12:57:13.279Z,13412.00
2019-04-03T12:58:13.997Z,13336.00
2019-04-03T13:00:13.798Z,12404.00
2019-04-03T13:01:18.481Z,11684.00
2019-04-03T13:04:13.216Z,10020.00
2019-04-03T13:05:14.535Z,9680.00
2019-04-03T13:06:14.801Z,9576.00
2019-04-03T13:07:27.329Z,9668.00
2019-04-03T13:08:24.427Z,9936.00
2019-04-03T13:09:16.493Z,10280.00
2019-04-03T13:10:13.248Z,10636.00
2019-04-03T13:11:13.145Z,11084.00
2019-04-03T13:12:13.185Z,11840.00
2019-04-03T13:13:13.960Z,12880.00
2019-04-03T13:14:22.568Z,14020.00
2019-04-03T13:15:12.816Z,15064.00
2019-04-03T13:16:12.822Z,15716.00
2019-04-03T13:17:14.534Z,16124.00
2019-04-03T13:18:13.420Z,16228.00
2019-04-03T13:19:15.497Z,16240.00
2019-04-03T13:20:12.654Z,15928.00
2019-04-03T13:21:13.026Z,15332.00
2019-04-03T13:22:12.686Z,14508.00
2019-04-03T13:23:14.364Z,13896.00
2019-04-03T13:24:16.067Z,13596.00
2019-04-03T13:25:12.994Z,13724.00
2019-04-03T13:26:12.846Z,13928.00
2019-04-03T13:27:12.585Z,14132.00
2019-04-03T13:28:12.814Z,14192.00
2019-04-03T13:30:13.759Z,14116.00
2019-04-03T13:31:14.941Z,13984.00
2019-04-03T13:32:12.470Z,13804.00
2019-04-03T13:33:12.489Z,13680.00
2019-04-03T13:35:14.594Z,13920.00
2019-04-03T13:38:12.752Z,13904.00
2019-04-03T13:39:12.538Z,13568.00
2019-04-03T13:40:12.836Z,13308.00
2019-04-03T13:42:13.877Z,13232.00
2019-04-03T13:43:12.285Z,13300.00
2019-04-03T13:44:12.351Z,13320.00
2019-04-03T13:45:12.524Z,13224.00
2019-04-03T13:46:12.353Z,13056.00
2019-04-03T13:48:13.416Z,12680.00
2019-04-03T13:49:12.652Z,12260.00
2019-04-03T13:50:12.642Z,11664.00
2019-04-03T13:52:12.476Z,10348.00
2019-04-03T13:53:12.691Z,10024.00
2019-04-03T13:54:12.718Z,9952.00
2019-04-03T13:55:12.286Z,9916.00
2019-04-03T13:56:12.753Z,9772.00
2019-04-03T13:57:14.701Z,9580.00
2019-04-03T13:58:12.396Z,9376.00
2019-04-03T13:59:12.313Z,9120.00
2019-04-03T14:00:19.722Z,8832.00
2019-04-03T14:01:11.979Z,8492.00
2019-04-03T14:02:13.599Z,8156.00
2019-04-03T14:03:12.011Z,7872.00
2019-04-03T14:04:11.949Z,7664.00
2019-04-03T14:05:12.015Z,7460.00
2019-04-03T14:06:12.434Z,7232.00
2019-04-03T14:07:11.965Z,6992.00
2019-04-03T14:08:12.505Z,6720.00
2019-04-03T14:09:11.945Z,6464.00
2019-04-03T14:10:11.981Z,6404.00
2019-04-03T14:11:12.074Z,6620.00
2019-04-03T14:12:12.159Z,6920.00
2019-04-03T14:13:12.683Z,7208.00
2019-04-03T14:14:13.380Z,7412.00
2019-04-03T14:15:11.804Z,7748.00
2019-04-03T14:16:20.306Z,8320.00
2019-04-03T14:17:13.853Z,9028.00
2019-04-03T14:18:12.041Z,9672.00
2019-04-03T14:19:13.176Z,10280.00
2019-04-03T14:20:12.050Z,10796.00
2019-04-03T14:21:11.867Z,11160.00
2019-04-03T14:22:12.067Z,11356.00
2019-04-03T14:23:12.049Z,11376.00
2019-04-03T14:24:12.676Z,11232.00
2019-04-03T14:25:19.867Z,11008.00
2019-04-03T14:27:22.765Z,10668.00
2019-04-03T14:28:11.602Z,10496.00
2019-04-03T14:30:12.567Z,10184.00
2019-04-03T14:31:11.640Z,10164.00
2019-04-03T14:32:13.988Z,10188.00
2019-04-03T14:33:11.736Z,10348.00
2019-04-03T14:34:11.757Z,10700.00
2019-04-03T14:36:11.423Z,11724.00
2019-04-03T14:37:11.360Z,12396.00
2019-04-03T14:38:12.368Z,13184.00
2019-04-03T14:40:12.964Z,14948.00
2019-04-03T14:41:12.119Z,15808.00
2019-04-03T14:42:11.350Z,16576.00
2019-04-03T14:43:11.305Z,17184.00
2019-04-03T14:44:11.731Z,17664.00
2019-04-03T14:46:11.743Z,18496.00
2019-04-03T14:47:12.348Z,18912.00
2019-04-03T14:48:11.261Z,19168.00
2019-04-03T14:49:11.164Z,19200.00
2019-04-03T14:50:11.306Z,19744.00